sensor_id;sensor_type;location;lat;lon;timestamp;pressure;altitude;pressure_sealevel;temperature;humidity
74834;BME280;63361;52.384;20.930;2023-10-09T00:01:26;101348.16;;;-0.67;100.00
74834;BME280;63361;52.384;20.930;2023-10-09T00:03:52;101362.28;;;-0.75;100.00
74834;BME280;63361;52.384;20.930;2023-10-09T00:06:21;101358.75;;;-0.82;100.00
74834;BME280;63361;52.384;20.930;2023-10-09T00:08:57;101370.25;;;-0.75;100.00
74834;BME280;63361;52.384;20.930;2023-10-09T00:11:22;101360.56;;;-0.83;100.00
74834;BME280;63361;52.384;20.930;2023-10-09T00:13:54;101373.63;;;-0.96;100.00
74834;BME280;63361;52.384;20.930;2023-10-09T00:16:24;101365.19;;;-1.14;100.00
74834;BME280;63361;52.384;20.930;2023-10-09T00:19:01;101365.47;;;-1.09;100.00
74834;BME280;63361;52.384;20.930;2023-10-09T00:21:46;101360.41;;;-1.19;100.00
74834;BME280;63361;52.384;20.930;2023-10-09T00:24:12;101354.88;;;-1.09;100.00
74834;BME280;63361;52.384;20.930;2023-10-09T00:26:54;101320.16;;;-1.14;100.00
74834;BME280;63361;52.384;20.930;2023-10-09T00:29:26;101357.91;;;-0.97;100.00
74834;BME280;63361;52.384;20.930;2023-10-09T00:31:59;101336.31;;;-1.24;100.00
74834;BME280;63361;52.384;20.930;2023-10-09T00:34:39;101343.66;;;-1.34;100.00
74834;BME280;63361;52.384;20.930;2023-10-09T00:37:08;101368.72;;;-1.22;100.00
74834;BME280;63361;52.384;20.930;2023-10-09T00:39:51;101342.44;;;-1.46;100.00
74834;BME280;63361;52.384;20.930;2023-10-09T00:42:23;101355.63;;;-1.38;100.00
74834;BME280;63361;52.384;20.930;2023-10-09T00:44:57;101329.72;;;-1.51;100.00
74834;BME280;63361;52.384;20.930;2023-10-09T00:47:28;101339.50;;;-1.51;100.00
74834;BME280;63361;52.384;20.930;2023-10-09T00:50:01;101310.63;;;-1.61;100.00
74834;BME280;63361;52.384;20.930;2023-10-09T00:52:36;101324.44;;;-1.51;100.00
74834;BME280;63361;52.384;20.930;2023-10-09T00:55:05;101325.34;;;-1.58;100.00
74834;BME280;63361;52.384;20.930;2023-10-09T00:57:41;101323.22;;;-1.63;100.00
74834;BME280;63361;52.384;20.930;2023-10-09T01:00:07;101310.13;;;-1.56;100.00
74834;BME280;63361;52.384;20.930;2023-10-09T01:03:01;101306.50;;;-1.40;100.00
74834;BME280;63361;52.384;20.930;2023-10-09T01:05:48;101329.63;;;-1.20;100.00
74834;BME280;63361;52.384;20.930;2023-10-09T01:08:18;101319.78;;;-1.11;100.00
74834;BME280;63361;52.384;20.930;2023-10-09T01:10:51;101314.88;;;-0.99;100.00
74834;BME280;63361;52.384;20.930;2023-10-09T01:13:30;101303.91;;;-1.11;100.00
74834;BME280;63361;52.384;20.930;2023-10-09T01:16:11;101294.38;;;-1.20;100.00
74834;BME280;63361;52.384;20.930;2023-10-09T01:18:41;101279.94;;;-1.32;100.00
74834;BME280;63361;52.384;20.930;2023-10-09T01:21:07;101294.66;;;-1.15;100.00
74834;BME280;63361;52.384;20.930;2023-10-09T01:23:32;101290.06;;;-1.21;100.00
74834;BME280;63361;52.384;20.930;2023-10-09T01:25:57;101264.03;;;-1.32;100.00
74834;BME280;63361;52.384;20.930;2023-10-09T01:28:23;101288.81;;;-1.25;100.00
74834;BME280;63361;52.384;20.930;2023-10-09T01:30:50;101289.81;;;-1.26;100.00
74834;BME280;63361;52.384;20.930;2023-10-09T01:33:16;101300.75;;;-1.29;100.00
74834;BME280;63361;52.384;20.930;2023-10-09T01:35:52;101295.75;;;-1.24;100.00
74834;BME280;63361;52.384;20.930;2023-10-09T01:38:25;101293.38;;;-1.19;100.00
74834;BME280;63361;52.384;20.930;2023-10-09T01:41:10;101268.81;;;-1.28;100.00
74834;BME280;63361;52.384;20.930;2023-10-09T01:43:40;101277.47;;;-1.19;100.00
74834;BME280;63361;52.384;20.930;2023-10-09T01:46:11;101259.22;;;-0.99;100.00
74834;BME280;63361;52.384;20.930;2023-10-09T01:48:37;101271.66;;;-0.85;100.00
74834;BME280;63361;52.384;20.930;2023-10-09T01:51:05;101276.75;;;-0.69;100.00
74834;BME280;63361;52.384;20.930;2023-10-09T01:53:31;101268.28;;;-0.43;100.00
74834;BME280;63361;52.384;20.930;2023-10-09T01:56:08;101269.72;;;-0.26;100.00
74834;BME280;63361;52.384;20.930;2023-10-09T01:58:34;101255.34;;;-0.17;100.00
74834;BME280;63361;52.384;20.930;2023-10-09T02:00:59;101261.34;;;-0.08;100.00
74834;BME280;63361;52.384;20.930;2023-10-09T02:03:27;101262.84;;;0.01;100.00
74834;BME280;63361;52.384;20.930;2023-10-09T02:05:55;101259.13;;;-0.05;100.00
74834;BME280;63361;52.384;20.930;2023-10-09T02:08:28;101270.50;;;0.11;100.00
74834;BME280;63361;52.384;20.930;2023-10-09T02:10:54;101266.41;;;0.08;100.00
74834;BME280;63361;52.384;20.930;2023-10-09T02:13:22;101265.84;;;0.13;100.00
74834;BME280;63361;52.384;20.930;2023-10-09T02:15:56;101249.66;;;0.08;100.00
74834;BME280;63361;52.384;20.930;2023-10-09T02:18:24;101260.63;;;0.05;100.00
74834;BME280;63361;52.384;20.930;2023-10-09T02:25:59;101261.66;;;-0.18;100.00
74834;BME280;63361;52.384;20.930;2023-10-09T02:28:30;101247.16;;;-0.37;100.00
74834;BME280;63361;52.384;20.930;2023-10-09T02:30:59;101250.41;;;-0.20;100.00
74834;BME280;63361;52.384;20.930;2023-10-09T02:33:27;101249.03;;;-0.16;100.00
74834;BME280;63361;52.384;20.930;2023-10-09T02:35:58;101263.47;;;0.03;100.00
74834;BME280;63361;52.384;20.930;2023-10-09T02:38:30;101270.00;;;0.22;100.00
74834;BME280;63361;52.384;20.930;2023-10-09T02:40:59;101265.94;;;0.26;100.00
74834;BME280;63361;52.384;20.930;2023-10-09T02:43:32;101247.59;;;0.31;100.00
74834;BME280;63361;52.384;20.930;2023-10-09T02:46:13;101259.66;;;0.33;100.00
74834;BME280;63361;52.384;20.930;2023-10-09T02:48:43;101260.38;;;0.42;100.00
74834;BME280;63361;52.384;20.930;2023-10-09T02:51:12;101247.94;;;0.21;100.00
74834;BME280;63361;52.384;20.930;2023-10-09T02:53:47;101248.84;;;0.35;100.00
74834;BME280;63361;52.384;20.930;2023-10-09T02:56:15;101243.81;;;0.19;100.00
74834;BME280;63361;52.384;20.930;2023-10-09T02:58:42;101240.59;;;0.23;100.00
74834;BME280;63361;52.384;20.930;2023-10-09T03:01:12;101253.69;;;0.25;100.00
74834;BME280;63361;52.384;20.930;2023-10-09T03:03:41;101245.22;;;0.15;100.00
74834;BME280;63361;52.384;20.930;2023-10-09T03:06:12;101248.44;;;0.10;100.00
74834;BME280;63361;52.384;20.930;2023-10-09T03:08:39;101244.97;;;0.10;100.00
74834;BME280;63361;52.384;20.930;2023-10-09T03:11:08;101252.56;;;0.13;100.00
74834;BME280;63361;52.384;20.930;2023-10-09T03:13:40;101225.63;;;-0.06;100.00
74834;BME280;63361;52.384;20.930;2023-10-09T03:16:08;101240.75;;;0.15;100.00
74834;BME280;63361;52.384;20.930;2023-10-09T03:18:34;101232.97;;;0.14;100.00
74834;BME280;63361;52.384;20.930;2023-10-09T03:21:02;101236.22;;;0.16;100.00
74834;BME280;63361;52.384;20.930;2023-10-09T03:23:27;101239.13;;;0.21;100.00
74834;BME280;63361;52.384;20.930;2023-10-09T03:25:52;101224.59;;;0.17;100.00
74834;BME280;63361;52.384;20.930;2023-10-09T03:28:18;101243.06;;;0.25;100.00
74834;BME280;63361;52.384;20.930;2023-10-09T03:30:43;101242.88;;;0.26;100.00
74834;BME280;63361;52.384;20.930;2023-10-09T03:33:13;101254.44;;;0.19;100.00
74834;BME280;63361;52.384;20.930;2023-10-09T03:35:38;101247.81;;;0.08;100.00
74834;BME280;63361;52.384;20.930;2023-10-09T03:38:04;101243.50;;;0.07;100.00
74834;BME280;63361;52.384;20.930;2023-10-09T03:40:45;101237.00;;;0.10;100.00
74834;BME280;63361;52.384;20.930;2023-10-09T03:43:14;101239.66;;;0.10;100.00
74834;BME280;63361;52.384;20.930;2023-10-09T03:45:40;101218.25;;;0.11;100.00
74834;BME280;63361;52.384;20.930;2023-10-09T03:48:18;101252.13;;;0.09;100.00
74834;BME280;63361;52.384;20.930;2023-10-09T03:50:57;101224.31;;;0.05;100.00
74834;BME280;63361;52.384;20.930;2023-10-09T03:53:38;101238.13;;;0.22;100.00
74834;BME280;63361;52.384;20.930;2023-10-09T03:56:08;101240.84;;;0.28;100.00
74834;BME280;63361;52.384;20.930;2023-10-09T03:58:38;101234.72;;;0.28;100.00
74834;BME280;63361;52.384;20.930;2023-10-09T04:01:14;101238.03;;;0.37;100.00
74834;BME280;63361;52.384;20.930;2023-10-09T04:03:58;101219.34;;;0.45;100.00
74834;BME280;63361;52.384;20.930;2023-10-09T04:06:29;101204.41;;;0.44;100.00
74834;BME280;63361;52.384;20.930;2023-10-09T04:09:01;101228.34;;;0.50;100.00
74834;BME280;63361;52.384;20.930;2023-10-09T04:11:51;101221.75;;;0.46;100.00
74834;BME280;63361;52.384;20.930;2023-10-09T04:14:38;101209.84;;;0.35;100.00
74834;BME280;63361;52.384;20.930;2023-10-09T04:17:13;101224.56;;;0.66;100.00
74834;BME280;63361;52.384;20.930;2023-10-09T04:19:47;101198.75;;;0.53;100.00
74834;BME280;63361;52.384;20.930;2023-10-09T04:22:14;101211.06;;;0.61;100.00
74834;BME280;63361;52.384;20.930;2023-10-09T04:24:52;101221.16;;;0.79;100.00
74834;BME280;63361;52.384;20.930;2023-10-09T04:27:18;101224.19;;;0.69;100.00
74834;BME280;63361;52.384;20.930;2023-10-09T04:29:51;101211.16;;;0.74;100.00
74834;BME280;63361;52.384;20.930;2023-10-09T04:32:18;101188.38;;;0.58;100.00
74834;BME280;63361;52.384;20.930;2023-10-09T04:34:44;101191.03;;;0.58;100.00
74834;BME280;63361;52.384;20.930;2023-10-09T04:37:20;101184.28;;;0.62;100.00
74834;BME280;63361;52.384;20.930;2023-10-09T04:40:08;101200.00;;;0.57;100.00
74834;BME280;63361;52.384;20.930;2023-10-09T04:43:05;101188.56;;;0.57;100.00
74834;BME280;63361;52.384;20.930;2023-10-09T04:45:35;101180.81;;;0.62;100.00
74834;BME280;63361;52.384;20.930;2023-10-09T04:48:06;101175.72;;;0.67;100.00
74834;BME280;63361;52.384;20.930;2023-10-09T04:50:32;101170.47;;;0.74;100.00
74834;BME280;63361;52.384;20.930;2023-10-09T04:52:57;101162.25;;;0.68;100.00
74834;BME280;63361;52.384;20.930;2023-10-09T04:55:39;101179.13;;;0.89;100.00
74834;BME280;63361;52.384;20.930;2023-10-09T04:58:09;101161.50;;;0.81;100.00
74834;BME280;63361;52.384;20.930;2023-10-09T05:00:38;101150.72;;;0.89;100.00
74834;BME280;63361;52.384;20.930;2023-10-09T05:03:07;101135.19;;;0.93;100.00
74834;BME280;63361;52.384;20.930;2023-10-09T05:05:38;101136.03;;;1.00;100.00
74834;BME280;63361;52.384;20.930;2023-10-09T05:08:16;101136.22;;;0.98;100.00
74834;BME280;63361;52.384;20.930;2023-10-09T05:11:09;101133.56;;;0.98;100.00
74834;BME280;63361;52.384;20.930;2023-10-09T05:13:41;101141.34;;;1.00;100.00
74834;BME280;63361;52.384;20.930;2023-10-09T05:18:49;101126.84;;;1.09;100.00
74834;BME280;63361;52.384;20.930;2023-10-09T05:21:52;101115.19;;;1.03;100.00
74834;BME280;63361;52.384;20.930;2023-10-09T05:24:18;101136.06;;;1.07;100.00
74834;BME280;63361;52.384;20.930;2023-10-09T05:26:50;101142.00;;;1.15;100.00
74834;BME280;63361;52.384;20.930;2023-10-09T05:29:21;101132.22;;;1.29;100.00
74834;BME280;63361;52.384;20.930;2023-10-09T05:32:03;101131.25;;;1.36;100.00
74834;BME280;63361;52.384;20.930;2023-10-09T05:34:53;101147.03;;;1.51;100.00
74834;BME280;63361;52.384;20.930;2023-10-09T05:37:28;101140.88;;;1.51;100.00
74834;BME280;63361;52.384;20.930;2023-10-09T05:39:59;101116.75;;;1.52;100.00
74834;BME280;63361;52.384;20.930;2023-10-09T05:42:32;101133.94;;;1.76;100.00
74834;BME280;63361;52.384;20.930;2023-10-09T05:45:14;101133.75;;;1.77;100.00
74834;BME280;63361;52.384;20.930;2023-10-09T05:47:53;101119.41;;;1.79;100.00
74834;BME280;63361;52.384;20.930;2023-10-09T05:50:24;101115.09;;;1.84;100.00
74834;BME280;63361;52.384;20.930;2023-10-09T05:52:51;101120.66;;;1.96;100.00
74834;BME280;63361;52.384;20.930;2023-10-09T05:55:17;101117.34;;;2.07;100.00
74834;BME280;63361;52.384;20.930;2023-10-09T05:58:01;101112.44;;;2.10;100.00
74834;BME280;63361;52.384;20.930;2023-10-09T06:00:46;101107.91;;;2.24;100.00
74834;BME280;63361;52.384;20.930;2023-10-09T06:03:30;101112.19;;;2.32;100.00
74834;BME280;63361;52.384;20.930;2023-10-09T06:06:24;101103.16;;;2.39;100.00
74834;BME280;63361;52.384;20.930;2023-10-09T06:09:05;101106.41;;;2.55;100.00
74834;BME280;63361;52.384;20.930;2023-10-09T06:11:45;101107.75;;;2.77;100.00
74834;BME280;63361;52.384;20.930;2023-10-09T06:14:23;101122.44;;;2.93;100.00
74834;BME280;63361;52.384;20.930;2023-10-09T06:16:55;101112.50;;;3.13;100.00
74834;BME280;63361;52.384;20.930;2023-10-09T06:19:39;101120.53;;;3.44;100.00
74834;BME280;63361;52.384;20.930;2023-10-09T06:22:10;101121.34;;;3.76;100.00
74834;BME280;63361;52.384;20.930;2023-10-09T06:24:54;101123.09;;;3.89;100.00
74834;BME280;63361;52.384;20.930;2023-10-09T06:27:21;101116.81;;;4.02;100.00
74834;BME280;63361;52.384;20.930;2023-10-09T06:29:57;101124.81;;;4.02;100.00
74834;BME280;63361;52.384;20.930;2023-10-09T06:32:38;101125.81;;;4.07;100.00
74834;BME280;63361;52.384;20.930;2023-10-09T06:35:14;101129.13;;;4.28;100.00
74834;BME280;63361;52.384;20.930;2023-10-09T06:37:50;101127.84;;;4.30;100.00
74834;BME280;63361;52.384;20.930;2023-10-09T06:43:15;101127.50;;;4.81;100.00
74834;BME280;63361;52.384;20.930;2023-10-09T06:45:53;101125.28;;;4.78;100.00
74834;BME280;63361;52.384;20.930;2023-10-09T06:48:37;101104.69;;;4.79;100.00
74834;BME280;63361;52.384;20.930;2023-10-09T06:51:07;101107.69;;;4.71;100.00
74834;BME280;63361;52.384;20.930;2023-10-09T06:53:39;101117.00;;;4.98;100.00
74834;BME280;63361;52.384;20.930;2023-10-09T06:56:31;101132.19;;;5.34;100.00
74834;BME280;63361;52.384;20.930;2023-10-09T06:59:01;101119.25;;;5.31;100.00
74834;BME280;63361;52.384;20.930;2023-10-09T07:01:40;101138.38;;;5.35;100.00
74834;BME280;63361;52.384;20.930;2023-10-09T07:04:09;101119.09;;;5.68;100.00
74834;BME280;63361;52.384;20.930;2023-10-09T07:06:48;101123.91;;;6.82;100.00
74834;BME280;63361;52.384;20.930;2023-10-09T07:09:18;101114.41;;;7.93;98.90
74834;BME280;63361;52.384;20.930;2023-10-09T07:11:48;101133.41;;;8.59;80.77
74834;BME280;63361;52.384;20.930;2023-10-09T07:14:16;101130.53;;;8.65;77.23
74834;BME280;63361;52.384;20.930;2023-10-09T07:19:30;101137.56;;;9.37;72.26
74834;BME280;63361;52.384;20.930;2023-10-09T07:21:59;101138.84;;;9.56;68.78
74834;BME280;63361;52.384;20.930;2023-10-09T07:24:28;101128.63;;;9.31;67.41
74834;BME280;63361;52.384;20.930;2023-10-09T07:27:06;101130.84;;;9.12;68.08
74834;BME280;63361;52.384;20.930;2023-10-09T07:29:38;101125.78;;;8.94;70.39
74834;BME280;63361;52.384;20.930;2023-10-09T07:32:16;101131.97;;;9.16;70.25
74834;BME280;63361;52.384;20.930;2023-10-09T07:34:52;101107.75;;;8.95;71.56
74834;BME280;63361;52.384;20.930;2023-10-09T07:37:26;101125.91;;;8.82;72.09
74834;BME280;63361;52.384;20.930;2023-10-09T07:40:02;101107.91;;;8.44;72.66
74834;BME280;63361;52.384;20.930;2023-10-09T07:42:33;101120.66;;;8.32;72.89
74834;BME280;63361;52.384;20.930;2023-10-09T07:45:01;101113.66;;;8.70;73.79
74834;BME280;63361;52.384;20.930;2023-10-09T07:47:47;101090.28;;;8.54;72.06
74834;BME280;63361;52.384;20.930;2023-10-09T07:50:25;101120.75;;;9.03;70.15
74834;BME280;63361;52.384;20.930;2023-10-09T07:53:05;101094.69;;;9.30;66.69
74834;BME280;63361;52.384;20.930;2023-10-09T07:55:40;101099.66;;;10.54;62.66
74834;BME280;63361;52.384;20.930;2023-10-09T07:58:11;101087.28;;;10.53;59.99
74834;BME280;63361;52.384;20.930;2023-10-09T08:00:37;101089.63;;;10.03;60.97
74834;BME280;63361;52.384;20.930;2023-10-09T08:03:22;101093.66;;;9.68;62.41
74834;BME280;63361;52.384;20.930;2023-10-09T08:05:52;101098.69;;;9.86;63.92
74834;BME280;63361;52.384;20.930;2023-10-09T08:08:19;101101.94;;;10.20;62.13
74834;BME280;63361;52.384;20.930;2023-10-09T08:10:54;101094.25;;;10.07;60.66
74834;BME280;63361;52.384;20.930;2023-10-09T08:13:37;101108.22;;;10.36;59.03
74834;BME280;63361;52.384;20.930;2023-10-09T08:16:15;101100.41;;;10.97;57.26
74834;BME280;63361;52.384;20.930;2023-10-09T08:18:47;101102.97;;;11.54;55.09
74834;BME280;63361;52.384;20.930;2023-10-09T08:21:16;101110.81;;;12.27;52.85
74834;BME280;63361;52.384;20.930;2023-10-09T08:23:42;101104.13;;;12.89;49.89
74834;BME280;63361;52.384;20.930;2023-10-09T08:26:18;101114.97;;;14.11;46.01
74834;BME280;63361;52.384;20.930;2023-10-09T08:29:12;101097.59;;;14.65;44.69
74834;BME280;63361;52.384;20.930;2023-10-09T08:31:45;101093.78;;;15.46;43.18
74834;BME280;63361;52.384;20.930;2023-10-09T08:34:12;101092.00;;;15.18;42.94
74834;BME280;63361;52.384;20.930;2023-10-09T08:36:51;101090.16;;;14.94;43.38
74834;BME280;63361;52.384;20.930;2023-10-09T08:39:21;101093.59;;;14.33;44.26
74834;BME280;63361;52.384;20.930;2023-10-09T08:41:56;101088.97;;;14.82;43.86
74834;BME280;63361;52.384;20.930;2023-10-09T08:44:26;101077.53;;;15.92;41.37
74834;BME280;63361;52.384;20.930;2023-10-09T08:46:55;101080.75;;;15.62;40.77
74834;BME280;63361;52.384;20.930;2023-10-09T08:49:22;101088.75;;;16.64;39.58
74834;BME280;63361;52.384;20.930;2023-10-09T08:51:48;101096.38;;;16.35;38.69
74834;BME280;63361;52.384;20.930;2023-10-09T08:54:13;101087.88;;;16.23;39.67
74834;BME280;63361;52.384;20.930;2023-10-09T08:56:41;101093.81;;;18.63;36.12
74834;BME280;63361;52.384;20.930;2023-10-09T08:59:20;101080.09;;;20.44;31.96
74834;BME280;63361;52.384;20.930;2023-10-09T09:01:47;101073.47;;;20.45;31.55
74834;BME280;63361;52.384;20.930;2023-10-09T09:04:39;101077.84;;;19.56;31.33
74834;BME280;63361;52.384;20.930;2023-10-09T09:07:38;101055.97;;;17.86;34.10
74834;BME280;63361;52.384;20.930;2023-10-09T09:09:59;101055.06;;;16.00;36.56
74834;BME280;63361;52.384;20.930;2023-10-09T09:12:54;101052.88;;;15.51;37.69
74834;BME280;63361;52.384;20.930;2023-10-09T09:15:27;101050.25;;;15.46;38.31
74834;BME280;63361;52.384;20.930;2023-10-09T09:18:04;101057.81;;;16.00;37.13
74834;BME280;63361;52.384;20.930;2023-10-09T09:20:36;101053.88;;;15.74;37.97
74834;BME280;63361;52.384;20.930;2023-10-09T09:23:11;101050.47;;;14.74;39.83
74834;BME280;63361;52.384;20.930;2023-10-09T09:25:44;101035.31;;;16.08;38.55
74834;BME280;63361;52.384;20.930;2023-10-09T09:28:14;101044.34;;;19.59;32.68
74834;BME280;63361;52.384;20.930;2023-10-09T09:30:47;101041.94;;;20.60;30.22
74834;BME280;63361;52.384;20.930;2023-10-09T09:33:24;101039.13;;;22.30;28.09
74834;BME280;63361;52.384;20.930;2023-10-09T09:36:06;101027.75;;;22.56;26.92
74834;BME280;63361;52.384;20.930;2023-10-09T09:38:33;101024.97;;;21.08;27.90
74834;BME280;63361;52.384;20.930;2023-10-09T09:41:13;101009.09;;;19.49;29.66
74834;BME280;63361;52.384;20.930;2023-10-09T09:43:51;101007.31;;;19.02;30.77
74834;BME280;63361;52.384;20.930;2023-10-09T09:46:18;101004.88;;;17.86;32.73
74834;BME280;63361;52.384;20.930;2023-10-09T09:48:44;101010.00;;;19.45;30.66
74834;BME280;63361;52.384;20.930;2023-10-09T09:51:13;100990.38;;;20.45;28.48
74834;BME280;63361;52.384;20.930;2023-10-09T09:53:40;100993.16;;;21.73;27.29
74834;BME280;63361;52.384;20.930;2023-10-09T09:56:06;100987.53;;;21.24;27.55
74834;BME280;63361;52.384;20.930;2023-10-09T09:58:32;100983.81;;;20.28;28.28
74834;BME280;63361;52.384;20.930;2023-10-09T10:01:08;100979.50;;;18.34;30.82
74834;BME280;63361;52.384;20.930;2023-10-09T10:04:07;100996.88;;;17.01;32.96
74834;BME280;63361;52.384;20.930;2023-10-09T10:06:40;100995.47;;;16.26;33.81
74834;BME280;63361;52.384;20.930;2023-10-09T10:09:07;100975.81;;;15.04;34.77
74834;BME280;63361;52.384;20.930;2023-10-09T10:14:09;100965.06;;;15.13;35.87
74834;BME280;63361;52.384;20.930;2023-10-09T10:17:02;100963.59;;;15.21;36.00
74834;BME280;63361;52.384;20.930;2023-10-09T10:22:25;100953.75;;;14.07;38.47
74834;BME280;63361;52.384;20.930;2023-10-09T10:24:55;100970.03;;;14.73;37.90
74834;BME280;63361;52.384;20.930;2023-10-09T10:27:25;100942.00;;;14.35;35.73
74834;BME280;63361;52.384;20.930;2023-10-09T10:32:56;100958.53;;;15.14;36.63
74834;BME280;63361;52.384;20.930;2023-10-09T10:35:35;100949.47;;;15.97;35.90
74834;BME280;63361;52.384;20.930;2023-10-09T10:38:22;100953.28;;;16.87;33.76
74834;BME280;63361;52.384;20.930;2023-10-09T10:40:47;100939.84;;;17.13;34.00
74834;BME280;63361;52.384;20.930;2023-10-09T10:43:22;100940.53;;;17.18;33.08
74834;BME280;63361;52.384;20.930;2023-10-09T10:46:04;100945.03;;;17.68;32.62
74834;BME280;63361;52.384;20.930;2023-10-09T10:48:34;100942.97;;;17.51;32.86
74834;BME280;63361;52.384;20.930;2023-10-09T10:51:04;100939.66;;;16.87;33.71
74834;BME280;63361;52.384;20.930;2023-10-09T10:53:30;100928.38;;;15.75;35.49
74834;BME280;63361;52.384;20.930;2023-10-09T10:56:12;100918.41;;;15.71;35.95
74834;BME280;63361;52.384;20.930;2023-10-09T10:58:39;100934.22;;;15.55;35.94
74834;BME280;63361;52.384;20.930;2023-10-09T11:01:19;100908.63;;;14.91;37.05
74834;BME280;63361;52.384;20.930;2023-10-09T11:03:48;100900.78;;;14.09;38.00
74834;BME280;63361;52.384;20.930;2023-10-09T11:06:28;100918.28;;;13.98;39.08
74834;BME280;63361;52.384;20.930;2023-10-09T11:09:06;100907.50;;;13.93;38.50
74834;BME280;63361;52.384;20.930;2023-10-09T11:11:46;100903.13;;;13.16;40.63
74834;BME280;63361;52.384;20.930;2023-10-09T11:14:13;100911.66;;;12.99;42.26
74834;BME280;63361;52.384;20.930;2023-10-09T11:16:43;100900.78;;;13.04;42.54
74834;BME280;63361;52.384;20.930;2023-10-09T11:19:13;100908.63;;;13.40;42.13
74834;BME280;63361;52.384;20.930;2023-10-09T11:21:55;100890.56;;;12.96;42.52
74834;BME280;63361;52.384;20.930;2023-10-09T11:24:33;100900.91;;;12.50;43.22
74834;BME280;63361;52.384;20.930;2023-10-09T11:27:03;100890.72;;;12.71;43.77
74834;BME280;63361;52.384;20.930;2023-10-09T11:29:48;100894.19;;;12.81;42.90
74834;BME280;63361;52.384;20.930;2023-10-09T11:32:20;100900.16;;;12.78;43.02
74834;BME280;63361;52.384;20.930;2023-10-09T11:35:14;100894.81;;;13.02;43.13
74834;BME280;63361;52.384;20.930;2023-10-09T11:37:56;100887.97;;;13.44;42.74
74834;BME280;63361;52.384;20.930;2023-10-09T11:40:32;100889.38;;;13.41;41.85
74834;BME280;63361;52.384;20.930;2023-10-09T11:43:18;100891.72;;;13.48;42.11
74834;BME280;63361;52.384;20.930;2023-10-09T11:45:49;100866.69;;;13.56;40.31
74834;BME280;63361;52.384;20.930;2023-10-09T11:48:21;100876.69;;;13.31;40.35
74834;BME280;63361;52.384;20.930;2023-10-09T11:51:12;100863.25;;;13.21;40.97
74834;BME280;63361;52.384;20.930;2023-10-09T11:53:44;100875.44;;;13.24;40.49
74834;BME280;63361;52.384;20.930;2023-10-09T11:56:21;100875.28;;;13.05;41.25
74834;BME280;63361;52.384;20.930;2023-10-09T11:58:48;100873.25;;;13.50;40.15
74834;BME280;63361;52.384;20.930;2023-10-09T12:01:15;100867.91;;;13.16;41.75
74834;BME280;63361;52.384;20.930;2023-10-09T12:03:45;100861.06;;;12.89;43.78
74834;BME280;63361;52.384;20.930;2023-10-09T12:06:19;100864.41;;;12.81;43.51
74834;BME280;63361;52.384;20.930;2023-10-09T12:08:47;100876.97;;;12.67;44.17
74834;BME280;63361;52.384;20.930;2023-10-09T12:11:13;100875.31;;;13.34;42.25
74834;BME280;63361;52.384;20.930;2023-10-09T12:13:39;100873.19;;;14.45;40.38
74834;BME280;63361;52.384;20.930;2023-10-09T12:16:07;100867.59;;;15.06;39.83
74834;BME280;63361;52.384;20.930;2023-10-09T12:18:34;100855.88;;;14.92;40.35
74834;BME280;63361;52.384;20.930;2023-10-09T12:21:00;100851.31;;;15.34;39.39
74834;BME280;63361;52.384;20.930;2023-10-09T12:23:30;100857.72;;;14.78;40.06
74834;BME280;63361;52.384;20.930;2023-10-09T12:26:01;100844.47;;;14.58;41.18
74834;BME280;63361;52.384;20.930;2023-10-09T12:28:27;100840.13;;;13.77;43.40
74834;BME280;63361;52.384;20.930;2023-10-09T12:30:53;100857.09;;;13.63;43.06
74834;BME280;63361;52.384;20.930;2023-10-09T12:33:20;100862.13;;;13.51;44.66
74834;BME280;63361;52.384;20.930;2023-10-09T12:35:53;100863.84;;;13.13;45.30
74834;BME280;63361;52.384;20.930;2023-10-09T12:38:18;100848.03;;;13.49;45.19
74834;BME280;63361;52.384;20.930;2023-10-09T12:40:47;100837.31;;;13.39;46.10
74834;BME280;63361;52.384;20.930;2023-10-09T12:43:19;100856.66;;;12.98;46.34
74834;BME280;63361;52.384;20.930;2023-10-09T12:45:45;100847.75;;;13.27;45.54
74834;BME280;63361;52.384;20.930;2023-10-09T12:48:10;100853.41;;;13.54;44.86
74834;BME280;63361;52.384;20.930;2023-10-09T12:50:37;100861.72;;;13.39;45.88
74834;BME280;63361;52.384;20.930;2023-10-09T12:53:07;100840.16;;;13.53;45.99
74834;BME280;63361;52.384;20.930;2023-10-09T12:55:37;100842.44;;;13.64;45.59
74834;BME280;63361;52.384;20.930;2023-10-09T12:58:06;100834.19;;;12.64;46.62
74834;BME280;63361;52.384;20.930;2023-10-09T13:00:38;100839.78;;;12.39;48.45
74834;BME280;63361;52.384;20.930;2023-10-09T13:03:10;100827.00;;;12.05;48.79
74834;BME280;63361;52.384;20.930;2023-10-09T13:05:51;100825.31;;;11.50;50.18
74834;BME280;63361;52.384;20.930;2023-10-09T13:08:28;100834.94;;;11.81;50.25
74834;BME280;63361;52.384;20.930;2023-10-09T13:11:04;100821.44;;;11.71;49.90
74834;BME280;63361;52.384;20.930;2023-10-09T13:13:42;100829.88;;;11.59;51.23
74834;BME280;63361;52.384;20.930;2023-10-09T13:16:18;100828.19;;;11.79;50.45
74834;BME280;63361;52.384;20.930;2023-10-09T13:18:50;100827.34;;;11.88;51.31
74834;BME280;63361;52.384;20.930;2023-10-09T13:21:17;100825.41;;;11.99;51.70
74834;BME280;63361;52.384;20.930;2023-10-09T13:23:42;100816.66;;;12.12;51.11
74834;BME280;63361;52.384;20.930;2023-10-09T13:26:13;100817.69;;;11.62;51.35
74834;BME280;63361;52.384;20.930;2023-10-09T13:28:51;100819.97;;;11.30;50.96
74834;BME280;63361;52.384;20.930;2023-10-09T13:31:17;100810.28;;;11.13;52.33